createdAt,value
2019-01-06T00:02:47.484Z,97729.09
2019-01-06T00:08:23.058Z,97724.87
2019-01-06T00:13:46.466Z,97720.95
2019-01-06T00:19:19.165Z,97727.00
2019-01-06T00:24:41.259Z,97725.84
2019-01-06T00:30:13.150Z,97724.27
2019-01-06T00:35:44.370Z,97723.09
2019-01-06T00:41:20.029Z,97721.62
2019-01-06T00:46:47.210Z,97709.75
2019-01-06T00:52:09.303Z,97711.45
2019-01-06T00:57:29.663Z,97716.63
2019-01-06T01:02:51.368Z,97710.16
2019-01-06T01:08:18.383Z,97710.29
2019-01-06T01:13:47.881Z,97689.20
2019-01-06T01:19:29.632Z,97687.31
2019-01-06T01:24:55.743Z,97673.22
2019-01-06T01:30:17.739Z,97658.95
2019-01-06T01:35:50.148Z,97647.13
2019-01-06T01:41:21.343Z,97651.88
2019-01-06T01:46:55.155Z,97644.33
2019-01-06T01:52:17.678Z,97641.77
2019-01-06T01:57:40.000Z,97638.69
2019-01-06T02:03:02.397Z,97629.42
2019-01-06T02:08:18.365Z,97623.31
2019-01-06T02:13:44.647Z,97626.36
2019-01-06T02:19:06.382Z,97609.47
2019-01-06T02:24:29.813Z,97613.52
2019-01-06T02:29:47.729Z,97604.71
2019-01-06T02:35:17.173Z,97605.73
2019-01-06T02:40:40.705Z,97598.38
2019-01-06T02:46:01.284Z,97589.94
2019-01-06T02:51:25.651Z,97591.59
2019-01-06T02:56:48.197Z,97594.58
2019-01-06T03:02:21.678Z,97598.59
2019-01-06T03:07:45.201Z,97584.92
2019-01-06T03:13:20.743Z,97581.11
2019-01-06T03:18:50.275Z,97577.92
2019-01-06T03:24:20.056Z,97568.78
2019-01-06T03:29:42.179Z,97573.64
2019-01-06T03:35:08.425Z,97556.83
2019-01-06T03:40:44.540Z,97554.17
2019-01-06T03:46:07.059Z,97548.59
2019-01-06T03:51:31.366Z,97545.68
2019-01-06T03:57:10.326Z,97548.98
2019-01-06T04:02:40.051Z,97551.59
2019-01-06T04:08:04.582Z,97547.78
2019-01-06T04:13:26.913Z,97556.46
2019-01-06T04:18:53.408Z,97561.71
2019-01-06T04:24:28.576Z,97560.58
2019-01-06T04:29:51.164Z,97565.39
2019-01-06T04:35:13.261Z,97557.90
2019-01-06T04:40:45.722Z,97535.22
2019-01-06T04:46:17.889Z,97541.64
2019-01-06T04:51:44.855Z,97541.79
2019-01-06T04:57:07.828Z,97535.19
2019-01-06T05:02:31.088Z,97546.08
2019-01-06T05:07:53.416Z,97547.53
2019-01-06T05:13:15.579Z,97551.12
2019-01-06T05:18:45.047Z,97550.39
2019-01-06T05:24:07.626Z,97553.73
2019-01-06T05:29:29.619Z,97548.06
2019-01-06T05:35:05.351Z,97548.70
2019-01-06T05:40:37.583Z,97549.28
2019-01-06T05:46:07.417Z,97556.95
2019-01-06T05:51:29.727Z,97555.54
2019-01-06T05:56:53.572Z,97558.56
2019-01-06T06:02:15.980Z,97552.25
2019-01-06T06:07:52.055Z,97554.39
2019-01-06T06:13:21.055Z,97562.48
2019-01-06T06:18:47.448Z,97569.87
2019-01-06T06:24:17.925Z,97574.31
2019-01-06T06:29:56.564Z,97575.23
2019-01-06T06:35:29.006Z,97567.41
2019-01-06T06:41:01.913Z,97582.94
2019-01-06T06:46:24.264Z,97578.39
2019-01-06T06:51:59.791Z,97576.64
2019-01-06T06:58:18.541Z,97580.27
2019-01-06T07:03:48.895Z,97573.11
2019-01-06T07:09:11.676Z,97565.39
2019-01-06T07:14:42.621Z,97563.92
2019-01-06T07:20:07.872Z,97562.75
2019-01-06T07:25:30.090Z,97557.45
2019-01-06T07:30:50.437Z,97558.72
2019-01-06T07:36:25.820Z,97555.17
2019-01-06T07:41:48.155Z,97567.89
2019-01-06T07:47:17.630Z,97567.33
2019-01-06T07:52:39.298Z,97567.30
2019-01-06T07:58:09.716Z,97572.09
2019-01-06T08:03:51.768Z,97577.39
2019-01-06T08:09:15.429Z,97575.58
2019-01-06T08:14:38.948Z,97572.48
2019-01-06T08:20:08.548Z,97579.19
2019-01-06T08:25:30.900Z,97575.00
2019-01-06T08:31:03.488Z,97575.70
2019-01-06T08:36:35.990Z,97579.85
2019-01-06T08:42:05.520Z,97584.90
2019-01-06T08:47:34.379Z,97582.69
2019-01-06T08:52:57.895Z,97580.70
2019-01-06T08:58:17.086Z,97575.00
2019-01-06T09:03:41.959Z,97584.78
2019-01-06T09:09:14.529Z,97573.06
2019-01-06T09:14:40.949Z,97564.38
2019-01-06T09:20:07.347Z,97562.23
2019-01-06T09:25:31.034Z,97566.58
2019-01-06T09:30:58.353Z,97572.48
2019-01-06T09:36:20.745Z,97576.14
2019-01-06T09:42:03.089Z,97572.20
2019-01-06T09:47:27.114Z,97564.53
2019-01-06T09:52:53.761Z,97564.69
2019-01-06T09:58:15.918Z,97567.44
2019-01-06T10:03:48.170Z,97559.22
2019-01-06T10:09:10.815Z,97554.25
2019-01-06T10:14:34.642Z,97565.93
2019-01-06T10:20:03.589Z,97567.18
2019-01-06T10:25:37.420Z,97561.20
2019-01-06T10:31:16.164Z,97559.47
2019-01-06T10:36:46.611Z,97553.68
2019-01-06T10:42:22.050Z,97556.09
2019-01-06T10:47:57.589Z,97551.50
2019-01-06T10:53:24.111Z,97541.18
2019-01-06T10:59:02.593Z,97551.06
2019-01-06T11:04:25.065Z,97555.08
2019-01-06T11:10:03.791Z,97563.02
2019-01-06T11:15:30.233Z,97557.61
2019-01-06T11:20:52.884Z,97567.22
2019-01-06T11:26:32.058Z,97563.13
2019-01-06T11:32:07.719Z,97567.70
2019-01-06T11:37:30.920Z,97564.73
2019-01-06T11:42:57.217Z,97567.44
2019-01-06T11:48:19.396Z,97564.19
2019-01-06T11:53:46.024Z,97570.89
2019-01-06T11:59:12.562Z,97573.66
2019-01-06T12:04:36.142Z,97579.91
2019-01-06T12:10:05.885Z,97582.78
2019-01-06T12:15:28.176Z,97599.65
2019-01-06T12:20:53.305Z,97598.94
2019-01-06T12:26:19.553Z,97599.78
2019-01-06T12:31:49.112Z,97610.14
2019-01-06T12:37:12.556Z,97604.30
2019-01-06T12:42:39.517Z,97619.13
2019-01-06T12:48:12.408Z,97618.84
2019-01-06T12:53:39.120Z,97626.83
2019-01-06T12:59:14.085Z,97630.02
2019-01-06T13:04:47.553Z,97642.52
2019-01-06T13:10:20.054Z,97649.63
2019-01-06T13:15:45.248Z,97659.25
2019-01-06T13:21:08.642Z,97649.03
2019-01-06T13:26:34.801Z,97654.56
2019-01-06T13:31:58.325Z,97678.81
2019-01-06T13:37:20.303Z,97688.77
2019-01-06T13:42:49.760Z,97691.27
2019-01-06T13:48:13.644Z,97694.59
2019-01-06T13:53:36.120Z,97709.11
2019-01-06T13:58:58.850Z,97711.75
2019-01-06T14:04:25.078Z,97695.41
2019-01-06T14:09:48.824Z,97705.80
2019-01-06T14:15:11.048Z,97708.83
2019-01-06T14:20:28.727Z,97713.94
2019-01-06T14:25:58.031Z,97726.12
2019-01-06T14:31:39.914Z,97738.45
2019-01-06T14:37:03.173Z,97757.64
2019-01-06T14:42:45.776Z,97754.31
2019-01-06T14:48:09.611Z,97765.25
2019-01-06T14:53:32.891Z,97772.55
2019-01-06T14:58:56.320Z,97776.35
2019-01-06T15:04:18.554Z,97790.87
2019-01-06T15:09:41.131Z,97790.97
2019-01-06T15:15:08.341Z,97793.88
2019-01-06T15:20:50.167Z,97814.47
2019-01-06T15:26:17.755Z,97807.56
2019-01-06T15:31:39.617Z,97826.37
2019-01-06T15:37:15.742Z,97836.16
2019-01-06T15:42:45.352Z,97833.94
2019-01-06T15:48:07.818Z,97841.36
2019-01-06T15:53:41.646Z,97850.95
2019-01-06T15:59:03.650Z,97860.50
2019-01-06T16:04:27.024Z,97873.14
2019-01-06T16:09:44.866Z,97863.30
2019-01-06T16:15:08.527Z,97877.84
2019-01-06T16:20:46.022Z,97872.52
2019-01-06T16:26:18.677Z,97879.35
2019-01-06T16:31:44.727Z,97890.44
2019-01-06T16:37:20.479Z,97888.22
2019-01-06T16:42:53.667Z,97907.27
2019-01-06T16:48:20.918Z,97900.24
2019-01-06T16:53:48.733Z,97916.50
2019-01-06T16:59:06.765Z,97918.00
2019-01-06T17:04:36.631Z,97932.06
2019-01-06T17:10:12.407Z,97942.02
2019-01-06T17:15:38.768Z,97965.60
2019-01-06T17:21:09.355Z,97959.48
2019-01-06T17:26:33.158Z,97971.33
2019-01-06T17:32:03.187Z,97984.46
2019-01-06T17:37:42.079Z,97976.70
2019-01-06T17:43:03.964Z,97990.95
2019-01-06T17:48:26.734Z,97992.53
2019-01-06T17:54:04.524Z,97996.37
2019-01-06T17:59:26.631Z,97999.71
2019-01-06T18:04:52.963Z,97999.03
2019-01-06T18:10:21.829Z,98004.17
2019-01-06T18:15:45.031Z,98010.29
2019-01-06T18:21:22.219Z,98025.38
2019-01-06T18:26:44.434Z,98018.50
2019-01-06T18:32:11.357Z,98029.47
2019-01-06T18:37:34.743Z,98033.49
2019-01-06T18:43:02.757Z,98028.86
2019-01-06T18:48:29.084Z,98045.03
2019-01-06T18:53:59.423Z,98051.28
2019-01-06T18:59:28.891Z,98054.95
2019-01-06T19:04:55.384Z,98059.47
2019-01-06T19:10:17.706Z,98058.66
2019-01-06T19:15:39.651Z,98065.07
2019-01-06T19:21:02.673Z,98071.01
2019-01-06T19:26:32.440Z,98082.09
2019-01-06T19:32:01.809Z,98083.30
2019-01-06T19:37:23.576Z,98077.68
2019-01-06T19:42:54.368Z,98072.81
2019-01-06T19:48:27.968Z,98071.72
2019-01-06T19:53:54.841Z,98077.73
2019-01-06T19:59:18.904Z,98077.97
2019-01-06T20:04:41.174Z,98082.59
2019-01-06T20:10:16.514Z,98089.80
2019-01-06T20:15:52.293Z,98078.28
2019-01-06T20:21:15.935Z,98083.80
2019-01-06T20:26:38.441Z,98094.63
2019-01-06T20:32:00.994Z,98095.17
2019-01-06T20:37:36.754Z,98102.87
2019-01-06T20:43:04.455Z,98101.73
2019-01-06T20:48:49.561Z,98111.67
2019-01-06T20:54:24.299Z,98102.87
2019-01-06T20:59:49.794Z,98113.02
2019-01-06T21:05:10.300Z,98120.72
2019-01-06T21:10:26.169Z,98118.14
2019-01-06T21:15:52.089Z,98120.48
2019-01-06T21:21:14.636Z,98119.23
2019-01-06T21:26:38.345Z,98118.00
2019-01-06T21:32:14.235Z,98119.58
2019-01-06T21:37:40.669Z,98133.80
2019-01-06T21:43:07.002Z,98129.62
2019-01-06T21:48:30.363Z,98128.42
2019-01-06T21:54:03.813Z,98129.88
2019-01-06T21:59:16.066Z,98136.19
2019-01-06T22:04:38.594Z,98142.30
2019-01-06T22:10:11.011Z,98138.12
2019-01-06T22:15:40.318Z,98131.46
2019-01-06T22:21:06.676Z,98130.36
2019-01-06T22:26:31.520Z,98131.59
2019-01-06T22:32:15.748Z,98123.03
2019-01-06T22:37:45.834Z,98132.63
2019-01-06T22:43:09.284Z,98141.32
2019-01-06T22:48:40.658Z,98138.12
2019-01-06T22:54:02.739Z,98141.16
2019-01-06T22:59:33.080Z,98145.48
2019-01-06T23:05:07.219Z,98147.02
2019-01-06T23:10:30.677Z,98147.36
2019-01-06T23:15:52.932Z,98148.30
2019-01-06T23:21:31.548Z,98140.40
2019-01-06T23:26:54.988Z,98138.81
2019-01-06T23:32:24.740Z,98139.71
2019-01-06T23:37:47.003Z,98143.85
2019-01-06T23:43:10.721Z,98149.80
2019-01-06T23:48:46.345Z,98152.09
2019-01-06T23:54:13.205Z,98159.31
2019-01-06T23:59:31.116Z,98160.67
